Ouro Preto, Brazil
Current Conditions -  °F | °C
As of 3:00 PM on Friday 19 Dec 2014 (Local Time) from SBCY Reporting Station
Scattered Clouds Scattered Clouds  
Wind Chill: 88°   Ceiling: Unl
Heat Index: 93°   Visibility: 6mi
Dew Point: 70°   Wind: 7mph
Humidity: 55%   Direction: 240°WSW
Pressure: 29.74"   Gusts: NA
Location:  15.15°S, 55.58°W
Report Text: SBCY 191800Z 24006KT 9999 SCT020 FEW025TCU 31/21 Q1007
Loading
Personal Weather Stations






























Interactive Weather Map New forecast layout! Learn more

10-Day Weather Forecast

Advertisements
Track Severe Weather on mobile